sensor_id;sensor_type;location;lat;lon;timestamp;temperature;humidity
23283;DHT22;11810;51.178;3.878;2023-05-07T00:01:59;16.80;99.90
23283;DHT22;11810;51.178;3.878;2023-05-07T00:04:25;16.70;99.90
23283;DHT22;11810;51.178;3.878;2023-05-07T00:06:51;16.60;99.90
23283;DHT22;11810;51.178;3.878;2023-05-07T00:09:17;16.60;99.90
23283;DHT22;11810;51.178;3.878;2023-05-07T00:11:43;16.60;99.90
23283;DHT22;11810;51.178;3.878;2023-05-07T00:14:09;16.60;99.90
23283;DHT22;11810;51.178;3.878;2023-05-07T00:16:35;16.60;99.90
23283;DHT22;11810;51.178;3.878;2023-05-07T00:19:01;16.50;99.90
23283;DHT22;11810;51.178;3.878;2023-05-07T00:21:27;16.40;99.90
23283;DHT22;11810;51.178;3.878;2023-05-07T00:23:54;16.50;99.90
23283;DHT22;11810;51.178;3.878;2023-05-07T00:26:20;16.40;99.90
23283;DHT22;11810;51.178;3.878;2023-05-07T00:28:46;16.30;99.90
23283;DHT22;11810;51.178;3.878;2023-05-07T00:31:12;16.30;99.90
23283;DHT22;11810;51.178;3.878;2023-05-07T00:33:38;16.30;99.90
23283;DHT22;11810;51.178;3.878;2023-05-07T00:36:04;16.30;99.90
23283;DHT22;11810;51.178;3.878;2023-05-07T00:38:31;16.40;99.90
23283;DHT22;11810;51.178;3.878;2023-05-07T00:40:56;16.30;99.90
23283;DHT22;11810;51.178;3.878;2023-05-07T00:43:22;16.20;99.90
23283;DHT22;11810;51.178;3.878;2023-05-07T00:45:48;16.30;99.90
23283;DHT22;11810;51.178;3.878;2023-05-07T00:48:15;16.30;99.90
23283;DHT22;11810;51.178;3.878;2023-05-07T00:50:41;16.10;99.90
23283;DHT22;11810;51.178;3.878;2023-05-07T00:53:07;16.20;99.90
23283;DHT22;11810;51.178;3.878;2023-05-07T00:55:34;16.20;99.90
23283;DHT22;11810;51.178;3.878;2023-05-07T00:58:01;16.10;99.90
23283;DHT22;11810;51.178;3.878;2023-05-07T01:00:27;16.20;99.90
23283;DHT22;11810;51.178;3.878;2023-05-07T01:02:53;16.10;99.90
23283;DHT22;11810;51.178;3.878;2023-05-07T01:05:20;16.20;99.90
23283;DHT22;11810;51.178;3.878;2023-05-07T01:07:48;16.20;99.90
23283;DHT22;11810;51.178;3.878;2023-05-07T01:10:16;16.10;99.90
23283;DHT22;11810;51.178;3.878;2023-05-07T01:12:44;16.10;99.90
23283;DHT22;11810;51.178;3.878;2023-05-07T01:15:11;16.00;99.90
23283;DHT22;11810;51.178;3.878;2023-05-07T01:17:39;15.90;99.90
23283;DHT22;11810;51.178;3.878;2023-05-07T01:20:06;16.00;99.90
23283;DHT22;11810;51.178;3.878;2023-05-07T01:22:37;16.00;99.90
23283;DHT22;11810;51.178;3.878;2023-05-07T01:25:04;16.00;99.90
23283;DHT22;11810;51.178;3.878;2023-05-07T01:27:31;16.00;99.90
23283;DHT22;11810;51.178;3.878;2023-05-07T01:29:59;16.00;99.90
23283;DHT22;11810;51.178;3.878;2023-05-07T01:32:52;16.00;99.90
23283;DHT22;11810;51.178;3.878;2023-05-07T01:35:21;16.00;99.90
23283;DHT22;11810;51.178;3.878;2023-05-07T01:37:49;16.00;99.90
23283;DHT22;11810;51.178;3.878;2023-05-07T01:40:15;15.90;99.90
23283;DHT22;11810;51.178;3.878;2023-05-07T01:42:43;15.90;99.90
23283;DHT22;11810;51.178;3.878;2023-05-07T01:45:09;16.00;99.90
23283;DHT22;11810;51.178;3.878;2023-05-07T01:47:37;15.90;99.90
23283;DHT22;11810;51.178;3.878;2023-05-07T01:50:05;15.80;99.90
23283;DHT22;11810;51.178;3.878;2023-05-07T01:52:31;15.80;99.90
23283;DHT22;11810;51.178;3.878;2023-05-07T01:54:57;15.80;99.90
23283;DHT22;11810;51.178;3.878;2023-05-07T01:57:23;15.80;99.90
23283;DHT22;11810;51.178;3.878;2023-05-07T01:59:49;15.70;99.90
23283;DHT22;11810;51.178;3.878;2023-05-07T02:02:15;15.70;99.90
23283;DHT22;11810;51.178;3.878;2023-05-07T02:04:41;15.70;99.90
23283;DHT22;11810;51.178;3.878;2023-05-07T02:07:07;15.70;99.90
23283;DHT22;11810;51.178;3.878;2023-05-07T02:09:33;15.60;99.90
23283;DHT22;11810;51.178;3.878;2023-05-07T02:11:59;15.70;99.90
23283;DHT22;11810;51.178;3.878;2023-05-07T02:14:26;15.70;99.90
23283;DHT22;11810;51.178;3.878;2023-05-07T02:16:52;15.60;99.90
23283;DHT22;11810;51.178;3.878;2023-05-07T02:19:17;15.60;99.90
23283;DHT22;11810;51.178;3.878;2023-05-07T02:21:46;15.60;99.90
23283;DHT22;11810;51.178;3.878;2023-05-07T02:24:13;15.60;99.90
23283;DHT22;11810;51.178;3.878;2023-05-07T02:26:42;15.40;99.90
23283;DHT22;11810;51.178;3.878;2023-05-07T02:29:08;15.40;99.90
23283;DHT22;11810;51.178;3.878;2023-05-07T02:31:34;15.30;99.90
23283;DHT22;11810;51.178;3.878;2023-05-07T02:34:00;15.30;99.90
23283;DHT22;11810;51.178;3.878;2023-05-07T02:36:26;15.40;99.90
23283;DHT22;11810;51.178;3.878;2023-05-07T02:38:52;15.40;99.90
23283;DHT22;11810;51.178;3.878;2023-05-07T02:41:18;15.40;99.90
23283;DHT22;11810;51.178;3.878;2023-05-07T02:43:44;15.40;99.90
23283;DHT22;11810;51.178;3.878;2023-05-07T02:46:10;15.40;99.90
23283;DHT22;11810;51.178;3.878;2023-05-07T02:48:36;15.40;99.90
23283;DHT22;11810;51.178;3.878;2023-05-07T02:51:03;15.30;99.90
23283;DHT22;11810;51.178;3.878;2023-05-07T02:53:29;15.40;99.90
23283;DHT22;11810;51.178;3.878;2023-05-07T02:55:57;15.50;99.90
23283;DHT22;11810;51.178;3.878;2023-05-07T02:58:23;15.60;99.90
23283;DHT22;11810;51.178;3.878;2023-05-07T03:00:49;15.60;99.90
23283;DHT22;11810;51.178;3.878;2023-05-07T03:03:15;15.70;99.90
23283;DHT22;11810;51.178;3.878;2023-05-07T03:05:41;15.70;99.90
23283;DHT22;11810;51.178;3.878;2023-05-07T03:08:08;15.60;99.90
23283;DHT22;11810;51.178;3.878;2023-05-07T03:10:34;15.50;99.90
23283;DHT22;11810;51.178;3.878;2023-05-07T03:13:01;15.50;99.90
23283;DHT22;11810;51.178;3.878;2023-05-07T03:15:27;15.70;99.90
23283;DHT22;11810;51.178;3.878;2023-05-07T03:17:53;15.60;99.90
23283;DHT22;11810;51.178;3.878;2023-05-07T03:20:19;15.40;99.90
23283;DHT22;11810;51.178;3.878;2023-05-07T03:22:45;15.40;99.90
23283;DHT22;11810;51.178;3.878;2023-05-07T03:25:11;15.40;99.90
23283;DHT22;11810;51.178;3.878;2023-05-07T03:27:37;15.40;99.90
23283;DHT22;11810;51.178;3.878;2023-05-07T03:30:04;15.30;99.90
23283;DHT22;11810;51.178;3.878;2023-05-07T03:32:30;15.30;99.90
23283;DHT22;11810;51.178;3.878;2023-05-07T03:34:56;15.30;99.90
23283;DHT22;11810;51.178;3.878;2023-05-07T03:37:22;15.30;99.90
23283;DHT22;11810;51.178;3.878;2023-05-07T03:39:48;15.30;99.90
23283;DHT22;11810;51.178;3.878;2023-05-07T03:42:14;15.30;99.90
23283;DHT22;11810;51.178;3.878;2023-05-07T03:44:40;15.30;99.90
23283;DHT22;11810;51.178;3.878;2023-05-07T03:47:06;15.30;99.90
23283;DHT22;11810;51.178;3.878;2023-05-07T03:49:32;15.30;99.90
23283;DHT22;11810;51.178;3.878;2023-05-07T03:51:58;15.30;99.90
23283;DHT22;11810;51.178;3.878;2023-05-07T03:54:24;15.30;99.90
23283;DHT22;11810;51.178;3.878;2023-05-07T03:56:50;15.30;99.90
23283;DHT22;11810;51.178;3.878;2023-05-07T03:59:15;15.20;99.90
23283;DHT22;11810;51.178;3.878;2023-05-07T04:01:41;15.20;99.90
23283;DHT22;11810;51.178;3.878;2023-05-07T04:04:07;15.10;99.90
23283;DHT22;11810;51.178;3.878;2023-05-07T04:06:33;15.30;99.90
23283;DHT22;11810;51.178;3.878;2023-05-07T04:08:59;15.30;99.90
23283;DHT22;11810;51.178;3.878;2023-05-07T04:11:25;15.20;99.90
23283;DHT22;11810;51.178;3.878;2023-05-07T04:13:51;15.10;99.90
23283;DHT22;11810;51.178;3.878;2023-05-07T04:16:17;15.30;99.90
23283;DHT22;11810;51.178;3.878;2023-05-07T04:18:43;15.40;99.90
23283;DHT22;11810;51.178;3.878;2023-05-07T04:21:19;15.40;99.90
23283;DHT22;11810;51.178;3.878;2023-05-07T04:23:46;15.40;99.90
23283;DHT22;11810;51.178;3.878;2023-05-07T04:26:13;15.30;99.90
23283;DHT22;11810;51.178;3.878;2023-05-07T04:28:39;15.30;99.90
23283;DHT22;11810;51.178;3.878;2023-05-07T04:31:06;15.40;99.90
23283;DHT22;11810;51.178;3.878;2023-05-07T04:33:32;15.40;99.90
23283;DHT22;11810;51.178;3.878;2023-05-07T04:36:02;15.60;99.90
23283;DHT22;11810;51.178;3.878;2023-05-07T04:38:32;15.60;99.90
23283;DHT22;11810;51.178;3.878;2023-05-07T04:41:03;15.60;99.90
23283;DHT22;11810;51.178;3.878;2023-05-07T04:43:29;15.70;99.90
23283;DHT22;11810;51.178;3.878;2023-05-07T04:45:55;15.70;99.90
23283;DHT22;11810;51.178;3.878;2023-05-07T04:48:21;15.80;99.90
23283;DHT22;11810;51.178;3.878;2023-05-07T04:50:50;15.70;99.90
23283;DHT22;11810;51.178;3.878;2023-05-07T04:53:17;15.80;99.90
23283;DHT22;11810;51.178;3.878;2023-05-07T04:55:43;15.80;99.90
23283;DHT22;11810;51.178;3.878;2023-05-07T04:58:10;15.90;99.90
23283;DHT22;11810;51.178;3.878;2023-05-07T05:00:37;15.90;99.90
23283;DHT22;11810;51.178;3.878;2023-05-07T05:03:04;15.80;99.90
23283;DHT22;11810;51.178;3.878;2023-05-07T05:05:30;15.60;99.90
23283;DHT22;11810;51.178;3.878;2023-05-07T05:07:56;15.50;99.90
23283;DHT22;11810;51.178;3.878;2023-05-07T05:10:22;15.50;99.90
23283;DHT22;11810;51.178;3.878;2023-05-07T05:12:48;15.70;99.90
23283;DHT22;11810;51.178;3.878;2023-05-07T05:15:14;15.70;99.90
23283;DHT22;11810;51.178;3.878;2023-05-07T05:17:40;15.50;99.90
23283;DHT22;11810;51.178;3.878;2023-05-07T05:20:06;15.50;99.90
23283;DHT22;11810;51.178;3.878;2023-05-07T05:22:33;15.70;99.90
23283;DHT22;11810;51.178;3.878;2023-05-07T05:24:59;15.80;99.90
23283;DHT22;11810;51.178;3.878;2023-05-07T05:27:24;15.90;99.90
23283;DHT22;11810;51.178;3.878;2023-05-07T05:29:50;15.80;99.90
23283;DHT22;11810;51.178;3.878;2023-05-07T05:32:16;15.80;99.90
23283;DHT22;11810;51.178;3.878;2023-05-07T05:34:42;15.80;99.90
23283;DHT22;11810;51.178;3.878;2023-05-07T05:37:08;15.80;99.90
23283;DHT22;11810;51.178;3.878;2023-05-07T05:39:34;15.90;99.90
23283;DHT22;11810;51.178;3.878;2023-05-07T05:42:01;15.90;99.90
23283;DHT22;11810;51.178;3.878;2023-05-07T05:44:27;15.80;99.90
23283;DHT22;11810;51.178;3.878;2023-05-07T05:46:53;15.70;99.90
23283;DHT22;11810;51.178;3.878;2023-05-07T05:49:21;15.70;99.90
23283;DHT22;11810;51.178;3.878;2023-05-07T05:51:47;15.80;99.90
23283;DHT22;11810;51.178;3.878;2023-05-07T05:54:13;15.80;99.90
23283;DHT22;11810;51.178;3.878;2023-05-07T05:56:39;15.90;99.90
23283;DHT22;11810;51.178;3.878;2023-05-07T05:59:05;16.00;99.90
23283;DHT22;11810;51.178;3.878;2023-05-07T06:01:31;16.10;99.90
23283;DHT22;11810;51.178;3.878;2023-05-07T06:03:57;16.00;99.90
23283;DHT22;11810;51.178;3.878;2023-05-07T06:06:23;16.30;99.90
23283;DHT22;11810;51.178;3.878;2023-05-07T06:08:49;16.30;99.90
23283;DHT22;11810;51.178;3.878;2023-05-07T06:11:15;16.30;99.90
23283;DHT22;11810;51.178;3.878;2023-05-07T06:13:41;16.20;99.90
23283;DHT22;11810;51.178;3.878;2023-05-07T06:16:07;16.20;99.90
23283;DHT22;11810;51.178;3.878;2023-05-07T06:18:33;16.20;99.90
23283;DHT22;11810;51.178;3.878;2023-05-07T06:21:01;16.30;99.90
23283;DHT22;11810;51.178;3.878;2023-05-07T06:23:27;16.40;99.90
23283;DHT22;11810;51.178;3.878;2023-05-07T06:25:53;16.40;99.90
23283;DHT22;11810;51.178;3.878;2023-05-07T06:28:19;16.40;99.90
23283;DHT22;11810;51.178;3.878;2023-05-07T06:30:45;16.40;99.90
23283;DHT22;11810;51.178;3.878;2023-05-07T06:33:11;16.40;99.90
23283;DHT22;11810;51.178;3.878;2023-05-07T06:35:37;16.40;99.90
23283;DHT22;11810;51.178;3.878;2023-05-07T06:38:03;16.50;99.90
23283;DHT22;11810;51.178;3.878;2023-05-07T06:40:29;16.50;99.90
23283;DHT22;11810;51.178;3.878;2023-05-07T06:42:55;16.60;99.90
23283;DHT22;11810;51.178;3.878;2023-05-07T06:45:21;16.50;99.90
23283;DHT22;11810;51.178;3.878;2023-05-07T06:47:47;16.60;99.90
23283;DHT22;11810;51.178;3.878;2023-05-07T06:50:13;16.70;99.90
23283;DHT22;11810;51.178;3.878;2023-05-07T06:52:39;16.80;99.90
23283;DHT22;11810;51.178;3.878;2023-05-07T06:55:05;16.90;99.90
23283;DHT22;11810;51.178;3.878;2023-05-07T06:57:31;16.90;99.90
23283;DHT22;11810;51.178;3.878;2023-05-07T06:59:57;16.80;99.90
23283;DHT22;11810;51.178;3.878;2023-05-07T07:02:23;16.90;99.90
23283;DHT22;11810;51.178;3.878;2023-05-07T07:04:49;17.10;99.90
23283;DHT22;11810;51.178;3.878;2023-05-07T07:07:15;17.20;99.90
23283;DHT22;11810;51.178;3.878;2023-05-07T07:09:41;17.30;99.90
23283;DHT22;11810;51.178;3.878;2023-05-07T07:12:07;17.30;99.90
23283;DHT22;11810;51.178;3.878;2023-05-07T07:14:33;17.30;99.90
23283;DHT22;11810;51.178;3.878;2023-05-07T07:16:59;17.30;99.90
23283;DHT22;11810;51.178;3.878;2023-05-07T07:19:26;17.40;99.90
23283;DHT22;11810;51.178;3.878;2023-05-07T07:21:52;17.50;99.90
23283;DHT22;11810;51.178;3.878;2023-05-07T07:24:18;17.40;99.90
23283;DHT22;11810;51.178;3.878;2023-05-07T07:26:47;17.40;99.90
23283;DHT22;11810;51.178;3.878;2023-05-07T07:29:13;17.30;99.90
23283;DHT22;11810;51.178;3.878;2023-05-07T07:31:39;17.50;99.90
23283;DHT22;11810;51.178;3.878;2023-05-07T07:34:05;17.60;99.90
23283;DHT22;11810;51.178;3.878;2023-05-07T07:36:31;17.70;99.90
23283;DHT22;11810;51.178;3.878;2023-05-07T07:38:57;17.70;99.90
23283;DHT22;11810;51.178;3.878;2023-05-07T07:41:23;17.70;99.90
23283;DHT22;11810;51.178;3.878;2023-05-07T07:43:49;17.80;99.90
23283;DHT22;11810;51.178;3.878;2023-05-07T07:46:15;17.70;99.90
23283;DHT22;11810;51.178;3.878;2023-05-07T07:48:41;17.70;99.90
23283;DHT22;11810;51.178;3.878;2023-05-07T07:51:07;17.80;99.90
23283;DHT22;11810;51.178;3.878;2023-05-07T07:53:32;17.80;99.90
23283;DHT22;11810;51.178;3.878;2023-05-07T07:55:58;17.90;99.90
23283;DHT22;11810;51.178;3.878;2023-05-07T07:58:24;17.80;99.90
23283;DHT22;11810;51.178;3.878;2023-05-07T08:00:50;17.80;99.90
23283;DHT22;11810;51.178;3.878;2023-05-07T08:03:16;17.90;99.90
23283;DHT22;11810;51.178;3.878;2023-05-07T08:05:43;17.90;99.90
23283;DHT22;11810;51.178;3.878;2023-05-07T08:08:09;17.80;99.90
23283;DHT22;11810;51.178;3.878;2023-05-07T08:10:35;17.80;99.90
23283;DHT22;11810;51.178;3.878;2023-05-07T08:13:04;17.80;99.90
23283;DHT22;11810;51.178;3.878;2023-05-07T08:15:30;17.70;99.90
23283;DHT22;11810;51.178;3.878;2023-05-07T08:17:57;17.70;99.90
23283;DHT22;11810;51.178;3.878;2023-05-07T08:20:23;17.70;99.90
23283;DHT22;11810;51.178;3.878;2023-05-07T08:22:49;17.80;99.90
23283;DHT22;11810;51.178;3.878;2023-05-07T08:25:15;17.70;99.90
23283;DHT22;11810;51.178;3.878;2023-05-07T08:27:41;17.80;99.90
23283;DHT22;11810;51.178;3.878;2023-05-07T08:30:07;17.90;99.90
23283;DHT22;11810;51.178;3.878;2023-05-07T08:32:33;17.70;99.90
23283;DHT22;11810;51.178;3.878;2023-05-07T08:35:00;17.70;99.90
23283;DHT22;11810;51.178;3.878;2023-05-07T08:37:26;17.70;99.90
23283;DHT22;11810;51.178;3.878;2023-05-07T08:39:52;17.80;99.90
23283;DHT22;11810;51.178;3.878;2023-05-07T08:42:18;18.00;99.90
23283;DHT22;11810;51.178;3.878;2023-05-07T08:44:46;18.00;99.90
23283;DHT22;11810;51.178;3.878;2023-05-07T08:47:12;17.80;99.90
23283;DHT22;11810;51.178;3.878;2023-05-07T08:49:38;17.70;99.90
23283;DHT22;11810;51.178;3.878;2023-05-07T08:52:04;17.80;99.90
23283;DHT22;11810;51.178;3.878;2023-05-07T08:54:31;17.80;99.90
23283;DHT22;11810;51.178;3.878;2023-05-07T08:56:57;17.80;99.90
23283;DHT22;11810;51.178;3.878;2023-05-07T08:59:23;17.90;99.90
23283;DHT22;11810;51.178;3.878;2023-05-07T09:01:49;17.90;99.90
23283;DHT22;11810;51.178;3.878;2023-05-07T09:04:15;17.80;99.90
23283;DHT22;11810;51.178;3.878;2023-05-07T09:06:41;18.00;99.90
23283;DHT22;11810;51.178;3.878;2023-05-07T09:09:07;18.20;99.90
23283;DHT22;11810;51.178;3.878;2023-05-07T09:11:33;18.30;99.90
23283;DHT22;11810;51.178;3.878;2023-05-07T09:13:59;18.20;99.90
23283;DHT22;11810;51.178;3.878;2023-05-07T09:16:28;18.10;99.90
23283;DHT22;11810;51.178;3.878;2023-05-07T09:18:57;18.20;99.90
23283;DHT22;11810;51.178;3.878;2023-05-07T09:21:24;18.10;99.90
23283;DHT22;11810;51.178;3.878;2023-05-07T09:23:55;18.10;99.90
23283;DHT22;11810;51.178;3.878;2023-05-07T09:26:22;18.20;99.90
23283;DHT22;11810;51.178;3.878;2023-05-07T09:28:49;18.20;99.90
23283;DHT22;11810;51.178;3.878;2023-05-07T09:31:14;18.40;99.90
23283;DHT22;11810;51.178;3.878;2023-05-07T09:33:40;18.40;99.90
23283;DHT22;11810;51.178;3.878;2023-05-07T09:36:08;18.70;99.90
23283;DHT22;11810;51.178;3.878;2023-05-07T09:38:35;18.70;99.90
23283;DHT22;11810;51.178;3.878;2023-05-07T09:41:12;18.70;99.90
23283;DHT22;11810;51.178;3.878;2023-05-07T09:43:39;18.70;99.90
23283;DHT22;11810;51.178;3.878;2023-05-07T09:46:07;18.90;99.90
23283;DHT22;11810;51.178;3.878;2023-05-07T09:48:41;19.00;99.90
23283;DHT22;11810;51.178;3.878;2023-05-07T09:51:51;18.80;99.90
23283;DHT22;11810;51.178;3.878;2023-05-07T09:54:17;18.80;99.90
23283;DHT22;11810;51.178;3.878;2023-05-07T09:56:47;18.90;99.90
23283;DHT22;11810;51.178;3.878;2023-05-07T09:59:14;18.90;99.90
23283;DHT22;11810;51.178;3.878;2023-05-07T10:01:44;19.10;99.90
23283;DHT22;11810;51.178;3.878;2023-05-07T10:04:11;19.30;99.90
23283;DHT22;11810;51.178;3.878;2023-05-07T10:06:37;19.40;99.90
23283;DHT22;11810;51.178;3.878;2023-05-07T10:09:04;19.40;99.90
23283;DHT22;11810;51.178;3.878;2023-05-07T10:11:35;19.50;99.90
23283;DHT22;11810;51.178;3.878;2023-05-07T10:14:04;19.70;99.90
23283;DHT22;11810;51.178;3.878;2023-05-07T10:16:35;19.80;99.90
23283;DHT22;11810;51.178;3.878;2023-05-07T10:19:04;19.80;99.90
23283;DHT22;11810;51.178;3.878;2023-05-07T10:21:31;19.80;99.90
23283;DHT22;11810;51.178;3.878;2023-05-07T10:24:05;19.70;99.90
23283;DHT22;11810;51.178;3.878;2023-05-07T10:26:40;19.60;99.90
23283;DHT22;11810;51.178;3.878;2023-05-07T10:29:14;19.60;99.90
23283;DHT22;11810;51.178;3.878;2023-05-07T10:32:06;19.60;99.90
23283;DHT22;11810;51.178;3.878;2023-05-07T10:34:42;19.80;99.90
23283;DHT22;11810;51.178;3.878;2023-05-07T10:37:09;19.90;99.90
23283;DHT22;11810;51.178;3.878;2023-05-07T10:39:36;20.10;99.90
23283;DHT22;11810;51.178;3.878;2023-05-07T10:42:13;20.00;99.90
23283;DHT22;11810;51.178;3.878;2023-05-07T10:44:40;20.30;99.90
23283;DHT22;11810;51.178;3.878;2023-05-07T10:47:13;20.50;99.90
23283;DHT22;11810;51.178;3.878;2023-05-07T10:52:18;20.70;99.90
23283;DHT22;11810;51.178;3.878;2023-05-07T10:54:45;20.90;99.90
23283;DHT22;11810;51.178;3.878;2023-05-07T10:57:36;21.00;99.90
23283;DHT22;11810;51.178;3.878;2023-05-07T11:00:03;21.40;99.90
23283;DHT22;11810;51.178;3.878;2023-05-07T11:05:28;21.30;99.90
23283;DHT22;11810;51.178;3.878;2023-05-07T11:07:55;21.30;99.90
23283;DHT22;11810;51.178;3.878;2023-05-07T11:10:22;21.50;99.90
23283;DHT22;11810;51.178;3.878;2023-05-07T11:12:51;21.60;99.90
23283;DHT22;11810;51.178;3.878;2023-05-07T11:15:38;21.70;99.90
23283;DHT22;11810;51.178;3.878;2023-05-07T11:18:05;21.70;99.90
23283;DHT22;11810;51.178;3.878;2023-05-07T11:20:48;21.80;99.90
23283;DHT22;11810;51.178;3.878;2023-05-07T11:26:06;21.80;99.90
23283;DHT22;11810;51.178;3.878;2023-05-07T11:28:40;21.80;99.90
23283;DHT22;11810;51.178;3.878;2023-05-07T11:31:07;22.10;99.90
23283;DHT22;11810;51.178;3.878;2023-05-07T11:33:34;22.10;99.90
23283;DHT22;11810;51.178;3.878;2023-05-07T11:36:03;21.90;99.90
23283;DHT22;11810;51.178;3.878;2023-05-07T11:38:36;21.70;99.90
23283;DHT22;11810;51.178;3.878;2023-05-07T11:41:03;21.80;99.90
23283;DHT22;11810;51.178;3.878;2023-05-07T11:43:31;21.60;99.90
23283;DHT22;11810;51.178;3.878;2023-05-07T11:46:11;21.20;99.90
23283;DHT22;11810;51.178;3.878;2023-05-07T11:48:40;21.40;99.90
23283;DHT22;11810;51.178;3.878;2023-05-07T11:51:07;21.30;99.90
23283;DHT22;11810;51.178;3.878;2023-05-07T11:53:40;21.50;99.90
23283;DHT22;11810;51.178;3.878;2023-05-07T11:56:16;21.80;99.90
23283;DHT22;11810;51.178;3.878;2023-05-07T11:58:44;22.00;99.90
23283;DHT22;11810;51.178;3.878;2023-05-07T12:01:11;22.00;99.90
23283;DHT22;11810;51.178;3.878;2023-05-07T12:03:40;22.30;99.90
23283;DHT22;11810;51.178;3.878;2023-05-07T12:06:12;22.50;99.90
23283;DHT22;11810;51.178;3.878;2023-05-07T12:08:40;22.60;99.90
23283;DHT22;11810;51.178;3.878;2023-05-07T12:11:21;22.40;99.90
23283;DHT22;11810;51.178;3.878;2023-05-07T12:13:47;22.60;99.90
23283;DHT22;11810;51.178;3.878;2023-05-07T12:16:14;22.80;99.90
23283;DHT22;11810;51.178;3.878;2023-05-07T12:18:40;22.90;99.90
23283;DHT22;11810;51.178;3.878;2023-05-07T12:21:07;22.90;99.90
23283;DHT22;11810;51.178;3.878;2023-05-07T12:23:35;23.10;99.90
23283;DHT22;11810;51.178;3.878;2023-05-07T12:26:01;23.20;99.90
23283;DHT22;11810;51.178;3.878;2023-05-07T12:28:28;23.20;99.90
23283;DHT22;11810;51.178;3.878;2023-05-07T12:30:54;23.30;99.90
23283;DHT22;11810;51.178;3.878;2023-05-07T12:33:24;23.10;99.90
23283;DHT22;11810;51.178;3.878;2023-05-07T12:35:52;22.90;99.90
23283;DHT22;11810;51.178;3.878;2023-05-07T12:38:18;22.70;99.90
23283;DHT22;11810;51.178;3.878;2023-05-07T12:40:47;22.40;99.90
23283;DHT22;11810;51.178;3.878;2023-05-07T12:43:25;22.50;99.90
23283;DHT22;11810;51.178;3.878;2023-05-07T12:45:53;22.90;99.90
23283;DHT22;11810;51.178;3.878;2023-05-07T12:48:20;22.80;99.90
23283;DHT22;11810;51.178;3.878;2023-05-07T12:50:50;22.70;99.90
23283;DHT22;11810;51.178;3.878;2023-05-07T12:53:17;22.70;99.90
23283;DHT22;11810;51.178;3.878;2023-05-07T12:55:47;22.80;99.90
23283;DHT22;11810;51.178;3.878;2023-05-07T13:00:52;22.90;99.90
23283;DHT22;11810;51.178;3.878;2023-05-07T13:05:49;23.30;99.90
23283;DHT22;11810;51.178;3.878;2023-05-07T13:08:36;23.30;99.90
23283;DHT22;11810;51.178;3.878;2023-05-07T13:11:03;23.50;99.90
23283;DHT22;11810;51.178;3.878;2023-05-07T13:13:34;23.10;99.90
23283;DHT22;11810;51.178;3.878;2023-05-07T13:16:01;22.90;99.90
23283;DHT22;11810;51.178;3.878;2023-05-07T13:18:29;22.60;99.90
23283;DHT22;11810;51.178;3.878;2023-05-07T13:20:56;22.50;99.90
23283;DHT22;11810;51.178;3.878;2023-05-07T13:23:22;22.30;99.90
23283;DHT22;11810;51.178;3.878;2023-05-07T13:25:48;22.20;99.90
23283;DHT22;11810;51.178;3.878;2023-05-07T13:28:15;21.80;99.90
23283;DHT22;11810;51.178;3.878;2023-05-07T13:30:41;21.80;99.90
23283;DHT22;11810;51.178;3.878;2023-05-07T13:33:07;21.90;99.90
23283;DHT22;11810;51.178;3.878;2023-05-07T13:35:33;21.80;99.90
23283;DHT22;11810;51.178;3.878;2023-05-07T13:38:00;21.50;99.90
23283;DHT22;11810;51.178;3.878;2023-05-07T13:40:25;21.40;99.90
23283;DHT22;11810;51.178;3.878;2023-05-07T13:42:53;21.30;99.90
23283;DHT22;11810;51.178;3.878;2023-05-07T13:45:19;21.30;99.90
23283;DHT22;11810;51.178;3.878;2023-05-07T13:47:46;21.20;99.90
23283;DHT22;11810;51.178;3.878;2023-05-07T13:50:13;21.00;99.90
23283;DHT22;11810;51.178;3.878;2023-05-07T13:52:43;20.90;99.90
23283;DHT22;11810;51.178;3.878;2023-05-07T13:55:11;20.80;99.90
23283;DHT22;11810;51.178;3.878;2023-05-07T13:57:37;20.60;99.90
23283;DHT22;11810;51.178;3.878;2023-05-07T14:00:04;20.60;99.90
23283;DHT22;11810;51.178;3.878;2023-05-07T14:02:31;20.60;99.90
23283;DHT22;11810;51.178;3.878;2023-05-07T14:04:57;20.60;99.90
23283;DHT22;11810;51.178;3.878;2023-05-07T14:07:23;20.90;99.90
23283;DHT22;11810;51.178;3.878;2023-05-07T14:09:49;20.90;99.90
23283;DHT22;11810;51.178;3.878;2023-05-07T14:12:15;20.90;99.90
23283;DHT22;11810;51.178;3.878;2023-05-07T14:14:41;20.90;99.90
23283;DHT22;11810;51.178;3.878;2023-05-07T14:17:07;21.10;99.90
23283;DHT22;11810;51.178;3.878;2023-05-07T14:19:34;21.00;99.90
23283;DHT22;11810;51.178;3.878;2023-05-07T14:21:59;21.20;99.90
23283;DHT22;11810;51.178;3.878;2023-05-07T14:24:25;21.50;99.90
23283;DHT22;11810;51.178;3.878;2023-05-07T14:26:51;21.50;99.90
23283;DHT22;11810;51.178;3.878;2023-05-07T14:29:17;21.60;99.90
23283;DHT22;11810;51.178;3.878;2023-05-07T14:31:45;21.60;99.90
23283;DHT22;11810;51.178;3.878;2023-05-07T14:34:11;21.70;99.90
23283;DHT22;11810;51.178;3.878;2023-05-07T14:36:37;21.70;99.90
23283;DHT22;11810;51.178;3.878;2023-05-07T14:39:06;21.70;99.90
23283;DHT22;11810;51.178;3.878;2023-05-07T14:41:32;22.10;99.90
23283;DHT22;11810;51.178;3.878;2023-05-07T14:43:58;22.30;99.90
23283;DHT22;11810;51.178;3.878;2023-05-07T14:46:24;22.20;99.90
23283;DHT22;11810;51.178;3.878;2023-05-07T14:48:51;22.10;99.90
23283;DHT22;11810;51.178;3.878;2023-05-07T14:51:17;22.00;99.90
23283;DHT22;11810;51.178;3.878;2023-05-07T14:53:43;21.80;99.90
23283;DHT22;11810;51.178;3.878;2023-05-07T14:56:09;22.10;99.90
23283;DHT22;11810;51.178;3.878;2023-05-07T14:58:35;22.00;99.90
23283;DHT22;11810;51.178;3.878;2023-05-07T15:01:01;21.80;99.90
23283;DHT22;11810;51.178;3.878;2023-05-07T15:03:27;22.00;99.90
23283;DHT22;11810;51.178;3.878;2023-05-07T15:05:54;22.00;99.90
23283;DHT22;11810;51.178;3.878;2023-05-07T15:08:20;21.90;99.90
23283;DHT22;11810;51.178;3.878;2023-05-07T15:10:46;21.60;99.90
23283;DHT22;11810;51.178;3.878;2023-05-07T15:13:12;21.30;99.90
23283;DHT22;11810;51.178;3.878;2023-05-07T15:15:39;21.10;99.90
23283;DHT22;11810;51.178;3.878;2023-05-07T15:18:05;21.10;99.90
23283;DHT22;11810;51.178;3.878;2023-05-07T15:20:31;21.40;99.90
23283;DHT22;11810;51.178;3.878;2023-05-07T15:22:57;21.30;99.90
23283;DHT22;11810;51.178;3.878;2023-05-07T15:25:23;21.30;99.90
23283;DHT22;11810;51.178;3.878;2023-05-07T15:27:49;21.20;99.90
23283;DHT22;11810;51.178;3.878;2023-05-07T15:30:15;21.20;99.90
23283;DHT22;11810;51.178;3.878;2023-05-07T15:32:42;21.10;99.90
23283;DHT22;11810;51.178;3.878;2023-05-07T15:35:08;21.00;99.90
23283;DHT22;11810;51.178;3.878;2023-05-07T15:37:35;20.90;99.90
23283;DHT22;11810;51.178;3.878;2023-05-07T15:40:01;21.20;99.90
23283;DHT22;11810;51.178;3.878;2023-05-07T15:42:32;21.20;99.90
23283;DHT22;11810;51.178;3.878;2023-05-07T15:44:59;21.20;99.90